createdAt,value
2022-11-06T00:04:36.152Z,101085.19
2022-11-06T00:09:44.025Z,101081.00
2022-11-06T00:14:50.010Z,101078.34
2022-11-06T00:19:56.197Z,101078.38
2022-11-06T00:25:07.572Z,101089.66
2022-11-06T00:30:14.486Z,101083.53
2022-11-06T00:35:21.060Z,101099.97
2022-11-06T00:40:28.895Z,101098.38
2022-11-06T00:45:35.218Z,101113.88
2022-11-06T00:50:41.471Z,101120.88
2022-11-06T00:55:49.310Z,101128.72
2022-11-06T01:00:55.786Z,101133.91
2022-11-06T01:06:09.331Z,101135.69
2022-11-06T01:11:20.105Z,101133.88
2022-11-06T01:16:27.787Z,101138.31
2022-11-06T01:21:37.379Z,101132.19
2022-11-06T01:27:12.039Z,101125.28
2022-11-06T01:32:12.818Z,101116.63
2022-11-06T01:37:19.025Z,101131.31
2022-11-06T01:42:26.639Z,101134.78
2022-11-06T01:47:32.821Z,101134.81
2022-11-06T01:52:40.187Z,101141.72
2022-11-06T01:57:49.021Z,101138.31
2022-11-06T02:02:55.458Z,101138.28
2022-11-06T02:08:03.068Z,101146.97
2022-11-06T02:13:26.315Z,101159.97
2022-11-06T02:19:11.807Z,101155.66
2022-11-06T02:25:10.380Z,101165.22
2022-11-06T02:30:20.056Z,101178.19
2022-11-06T02:35:31.694Z,101173.00
2022-11-06T02:40:44.558Z,101176.44
2022-11-06T02:45:58.628Z,101180.78
2022-11-06T02:51:06.952Z,101180.78
2022-11-06T02:56:16.796Z,101178.19
2022-11-06T03:01:31.189Z,101179.03
2022-11-06T03:06:43.546Z,101167.78
2022-11-06T03:11:59.220Z,101174.69
2022-11-06T03:17:13.994Z,101183.38
2022-11-06T03:22:29.889Z,101185.09
2022-11-06T03:27:42.248Z,101182.50
2022-11-06T03:32:55.527Z,101197.19
2022-11-06T03:38:07.112Z,101207.50
2022-11-06T03:43:18.982Z,101203.94
2022-11-06T03:48:33.801Z,101212.59
2022-11-06T03:53:48.183Z,101210.03
2022-11-06T03:58:55.495Z,101206.53
2022-11-06T04:04:08.628Z,101198.75
2022-11-06T04:09:35.334Z,101200.50
2022-11-06T04:14:47.150Z,101200.47
2022-11-06T04:19:58.778Z,101207.38
2022-11-06T04:25:34.670Z,101210.00
2022-11-06T04:30:55.455Z,101205.63
2022-11-06T04:36:12.728Z,101215.16
2022-11-06T04:41:34.919Z,101211.59
2022-11-06T04:46:48.525Z,101213.22
2022-11-06T04:51:57.253Z,101212.34
2022-11-06T04:57:05.312Z,101211.50
2022-11-06T05:02:13.188Z,101219.34
2022-11-06T05:07:21.497Z,101224.38
2022-11-06T05:12:28.112Z,101226.16
2022-11-06T05:17:36.616Z,101227.00
2022-11-06T05:23:05.332Z,101227.88
2022-11-06T05:28:12.282Z,101236.41
2022-11-06T05:33:18.588Z,101239.13
2022-11-06T05:38:26.245Z,101235.59
2022-11-06T05:43:32.421Z,101240.84
2022-11-06T05:48:38.600Z,101243.47
2022-11-06T05:53:46.298Z,101237.47
2022-11-06T05:58:52.485Z,101238.38
2022-11-06T06:03:59.046Z,101250.50
2022-11-06T06:09:07.120Z,101251.34
2022-11-06T06:14:13.457Z,101254.81
2022-11-06T06:19:19.854Z,101258.28
2022-11-06T06:24:27.766Z,101262.63
2022-11-06T06:29:34.650Z,101269.53
2022-11-06T06:34:40.914Z,101279.88
2022-11-06T06:39:49.151Z,101281.56
2022-11-06T06:44:55.597Z,101288.50
2022-11-06T06:50:02.418Z,101291.94
2022-11-06T06:55:11.708Z,101303.19
2022-11-06T07:00:18.718Z,101304.88
2022-11-06T07:05:25.129Z,101311.81
2022-11-06T07:10:34.815Z,101320.47
2022-11-06T07:15:40.513Z,101334.34
2022-11-06T07:20:46.466Z,101331.75
2022-11-06T07:25:56.534Z,101330.78
2022-11-06T07:31:04.342Z,101327.38
2022-11-06T07:36:13.751Z,101322.22
2022-11-06T07:41:21.315Z,101329.13
2022-11-06T07:46:27.514Z,101331.72
2022-11-06T07:51:33.702Z,101329.13
2022-11-06T07:56:41.432Z,101324.00
2022-11-06T08:01:47.913Z,101325.78
2022-11-06T08:06:54.370Z,101324.91
2022-11-06T08:12:02.234Z,101330.94
2022-11-06T08:17:08.485Z,101326.69
2022-11-06T08:22:14.604Z,101325.75
2022-11-06T08:27:22.370Z,101318.94
2022-11-06T08:32:29.844Z,101318.09
2022-11-06T08:37:36.077Z,101321.47
2022-11-06T08:42:43.786Z,101333.63
2022-11-06T08:47:50.124Z,101328.50
2022-11-06T08:52:58.919Z,101338.03
2022-11-06T08:58:07.515Z,101332.03
2022-11-06T09:03:16.880Z,101336.31
2022-11-06T09:08:24.553Z,101348.47
2022-11-06T09:13:32.296Z,101351.09
2022-11-06T09:18:38.742Z,101345.06
2022-11-06T09:23:46.472Z,101351.97
2022-11-06T09:28:54.516Z,101343.34
2022-11-06T09:34:01.143Z,101352.88
2022-11-06T09:39:07.573Z,101352.03
2022-11-06T09:44:38.974Z,101345.13
2022-11-06T09:49:51.735Z,101352.03
2022-11-06T09:55:03.222Z,101348.59
2022-11-06T10:00:16.438Z,101341.72
2022-11-06T10:05:29.075Z,101346.00
2022-11-06T10:10:44.499Z,101347.78
2022-11-06T10:16:04.494Z,101346.03
2022-11-06T10:21:18.288Z,101339.09
2022-11-06T10:26:36.679Z,101335.66
2022-11-06T10:31:58.033Z,101330.47
2022-11-06T10:37:10.392Z,101321.78
2022-11-06T10:42:21.745Z,101318.34
2022-11-06T10:47:35.430Z,101320.06
2022-11-06T10:52:57.257Z,101319.22
2022-11-06T10:58:07.495Z,101309.69
2022-11-06T11:03:29.891Z,101307.94
2022-11-06T11:08:41.901Z,101305.34
2022-11-06T11:13:52.157Z,101293.19
2022-11-06T11:19:25.211Z,101287.13
2022-11-06T11:24:32.073Z,101286.28
2022-11-06T11:29:48.483Z,101285.41
2022-11-06T11:34:58.875Z,101281.94
2022-11-06T11:40:37.150Z,101288.88
2022-11-06T11:45:43.840Z,101281.06
2022-11-06T11:50:52.007Z,101276.75
2022-11-06T11:55:58.826Z,101274.13
2022-11-06T12:01:09.654Z,101262.00
2022-11-06T12:06:21.188Z,101260.28
2022-11-06T12:11:32.232Z,101255.06
2022-11-06T12:16:39.813Z,101255.06
2022-11-06T12:21:52.709Z,101249.00
2022-11-06T12:27:07.318Z,101250.75
2022-11-06T12:32:28.699Z,101238.63
2022-11-06T12:37:51.409Z,101235.16
2022-11-06T12:43:11.541Z,101229.09
2022-11-06T12:48:46.138Z,101228.19
2022-11-06T12:54:13.480Z,101217.78
2022-11-06T12:59:39.194Z,101211.72
2022-11-06T13:04:56.577Z,101211.69
2022-11-06T13:10:28.349Z,101216.00
2022-11-06T13:15:43.476Z,101206.50
2022-11-06T13:20:58.406Z,101204.75
2022-11-06T13:26:19.312Z,101191.69
2022-11-06T13:31:36.948Z,101183.00
2022-11-06T13:36:43.956Z,101184.72
2022-11-06T13:41:54.096Z,101181.28
2022-11-06T13:47:10.822Z,101181.31
2022-11-06T13:52:26.293Z,101174.38
2022-11-06T13:58:19.414Z,101183.94
2022-11-06T14:04:03.242Z,101178.75
2022-11-06T14:09:21.037Z,101182.25
2022-11-06T14:14:33.229Z,101182.28
2022-11-06T14:19:42.398Z,101180.56
2022-11-06T14:24:53.822Z,101178.84
2022-11-06T14:30:08.956Z,101167.59
2022-11-06T14:35:52.181Z,101168.50
2022-11-06T14:41:00.539Z,101163.31
2022-11-06T14:46:22.605Z,101165.09
2022-11-06T14:51:31.431Z,101168.59
2022-11-06T14:56:39.924Z,101169.44
2022-11-06T15:02:00.128Z,101166.00
2022-11-06T15:07:50.923Z,101166.00
2022-11-06T15:13:13.192Z,101160.84
2022-11-06T15:18:24.864Z,101164.34
2022-11-06T15:23:41.243Z,101171.25
2022-11-06T15:28:52.680Z,101158.28
2022-11-06T15:34:05.073Z,101165.19
2022-11-06T15:39:35.131Z,101153.97
2022-11-06T15:44:43.607Z,101156.56
2022-11-06T15:50:07.273Z,101154.81
2022-11-06T15:55:23.665Z,101155.69
2022-11-06T16:00:30.869Z,101154.81
2022-11-06T16:05:39.813Z,101160.84
2022-11-06T16:10:50.110Z,101162.56
2022-11-06T16:15:59.568Z,101164.25
2022-11-06T16:21:16.925Z,101167.75
2022-11-06T16:26:28.429Z,101178.13
2022-11-06T16:31:39.604Z,101164.28
2022-11-06T16:37:01.083Z,101163.34
2022-11-06T16:42:31.386Z,101171.97
2022-11-06T16:47:38.386Z,101178.03
2022-11-06T16:52:54.526Z,101185.72
2022-11-06T16:58:03.921Z,101182.28
2022-11-06T17:03:23.238Z,101191.75
2022-11-06T17:08:39.998Z,101192.53
2022-11-06T17:13:49.273Z,101197.63
2022-11-06T17:18:56.613Z,101189.84
2022-11-06T17:24:31.161Z,101194.00
2022-11-06T17:29:34.320Z,101180.88
2022-11-06T17:34:41.768Z,101167.09
2022-11-06T17:39:50.930Z,101166.38
2022-11-06T17:44:57.883Z,101159.31
2022-11-06T17:50:05.623Z,101168.88
2022-11-06T17:55:16.549Z,101169.78
2022-11-06T18:00:24.486Z,101168.03
2022-11-06T18:05:31.838Z,101179.19
2022-11-06T18:10:41.893Z,101173.94
2022-11-06T18:15:49.590Z,101176.50
2022-11-06T18:20:59.957Z,101175.41
2022-11-06T18:26:09.595Z,101162.53
2022-11-06T18:31:17.528Z,101162.53
2022-11-06T18:36:25.087Z,101166.03
2022-11-06T18:41:36.483Z,101155.78
2022-11-06T18:46:44.974Z,101150.66
2022-11-06T18:51:52.428Z,101146.16
2022-11-06T18:57:00.995Z,101141.88
2022-11-06T19:02:08.537Z,101127.28
2022-11-06T19:07:16.759Z,101122.13
2022-11-06T19:12:27.571Z,101115.97
2022-11-06T19:17:36.214Z,101110.81
2022-11-06T19:22:50.076Z,101111.72
2022-11-06T19:27:59.756Z,101116.88
2022-11-06T19:33:08.519Z,101129.81
2022-11-06T19:38:16.155Z,101140.25
2022-11-06T19:43:25.601Z,101135.09
2022-11-06T19:48:34.573Z,101144.41
2022-11-06T19:53:42.642Z,101137.38
2022-11-06T19:58:53.924Z,101128.81
2022-11-06T20:04:03.655Z,101145.25
2022-11-06T20:09:11.926Z,101141.00
2022-11-06T20:14:22.684Z,101146.78
2022-11-06T20:19:32.986Z,101139.00
2022-11-06T20:24:41.808Z,101127.84
2022-11-06T20:29:50.874Z,101119.09
2022-11-06T20:34:57.863Z,101109.09
2022-11-06T20:40:05.858Z,101109.97
2022-11-06T20:45:14.633Z,101101.41
2022-11-06T20:50:22.341Z,101102.38
2022-11-06T20:55:29.510Z,101088.59
2022-11-06T21:00:41.893Z,101092.13
2022-11-06T21:05:49.621Z,101093.66
2022-11-06T21:11:03.300Z,101084.88
2022-11-06T21:16:18.242Z,101089.31
2022-11-06T21:21:28.442Z,101095.34
2022-11-06T21:26:37.706Z,101097.00
2022-11-06T21:31:49.200Z,101095.41
2022-11-06T21:37:01.218Z,101096.81
2022-11-06T21:42:08.957Z,101094.06
2022-11-06T21:47:16.847Z,101085.31
2022-11-06T21:52:41.538Z,101083.75
2022-11-06T21:57:47.723Z,101077.84
2022-11-06T22:02:55.493Z,101083.91
2022-11-06T22:08:02.522Z,101086.47
2022-11-06T22:13:08.749Z,101082.22
2022-11-06T22:18:16.715Z,101087.44
2022-11-06T22:23:23.016Z,101090.75
2022-11-06T22:28:29.406Z,101106.19
2022-11-06T22:33:37.464Z,101094.97
2022-11-06T22:38:45.671Z,101086.91
2022-11-06T22:43:52.508Z,101084.63
2022-11-06T22:49:00.852Z,101083.66
2022-11-06T22:54:07.461Z,101090.09
2022-11-06T22:59:14.647Z,101096.91
2022-11-06T23:04:22.232Z,101082.75
2022-11-06T23:09:28.874Z,101079.66
2022-11-06T23:14:35.257Z,101079.97
2022-11-06T23:19:43.124Z,101071.31
2022-11-06T23:24:49.440Z,101071.84
2022-11-06T23:30:00.724Z,101067.22
2022-11-06T23:35:16.942Z,101062.09
2022-11-06T23:40:23.827Z,101053.69
2022-11-06T23:45:47.523Z,101052.09
2022-11-06T23:50:55.134Z,101042.63
2022-11-06T23:56:06.064Z,101045.28
